createdAt,value
2024-04-30T00:00:20.231Z,15.62
2024-04-30T00:03:08.309Z,15.59
2024-04-30T00:05:36.250Z,15.55
2024-04-30T00:08:04.454Z,15.52
2024-04-30T00:10:32.395Z,15.52
2024-04-30T00:13:00.468Z,15.50
2024-04-30T00:15:28.478Z,15.48
2024-04-30T00:17:56.406Z,15.46
2024-04-30T00:20:24.341Z,15.43
2024-04-30T00:22:52.356Z,15.41
2024-04-30T00:25:20.328Z,15.38
2024-04-30T00:27:50.030Z,15.36
2024-04-30T00:30:17.931Z,15.33
2024-04-30T00:32:45.808Z,15.31
2024-04-30T00:35:13.825Z,15.28
2024-04-30T00:37:42.181Z,15.25
2024-04-30T00:40:10.401Z,15.23
2024-04-30T00:42:38.349Z,15.20
2024-04-30T00:45:06.551Z,15.17
2024-04-30T00:47:34.583Z,15.13
2024-04-30T00:50:03.456Z,15.12
2024-04-30T00:52:32.826Z,15.09
2024-04-30T00:55:01.110Z,15.07
2024-04-30T00:57:29.849Z,15.02
2024-04-30T00:59:57.757Z,14.98
2024-04-30T01:02:27.185Z,14.95
2024-04-30T01:05:01.157Z,14.93
2024-04-30T01:07:29.113Z,14.90
2024-04-30T01:09:57.250Z,14.85
2024-04-30T01:12:25.263Z,14.80
2024-04-30T01:14:53.131Z,14.77
2024-04-30T01:17:21.066Z,14.75
2024-04-30T01:19:48.977Z,14.71
2024-04-30T01:22:16.898Z,14.66
2024-04-30T01:24:44.818Z,14.64
2024-04-30T01:27:12.705Z,14.61
2024-04-30T01:29:40.544Z,14.58
2024-04-30T01:32:09.650Z,14.53
2024-04-30T01:34:39.048Z,14.49
2024-04-30T01:37:07.634Z,14.45
2024-04-30T01:39:35.509Z,14.39
2024-04-30T01:42:03.471Z,14.32
2024-04-30T01:44:31.324Z,14.25
2024-04-30T01:46:59.142Z,14.16
2024-04-30T01:49:27.100Z,14.10
2024-04-30T01:51:54.935Z,14.01
2024-04-30T01:54:22.839Z,13.95
2024-04-30T01:56:50.732Z,13.89
2024-04-30T01:59:18.575Z,13.84
2024-04-30T02:01:46.551Z,13.81
2024-04-30T02:04:14.422Z,13.79
2024-04-30T02:06:42.623Z,13.75
2024-04-30T02:09:10.528Z,13.75
2024-04-30T02:11:38.446Z,13.75
2024-04-30T02:14:06.272Z,13.75
2024-04-30T02:16:34.228Z,13.74
2024-04-30T02:19:02.114Z,13.73
2024-04-30T02:21:30.003Z,13.72
2024-04-30T02:23:57.843Z,13.70
2024-04-30T02:26:26.117Z,13.68
2024-04-30T02:28:53.968Z,13.67
2024-04-30T02:31:40.455Z,13.64
2024-04-30T02:34:19.760Z,13.62
2024-04-30T02:36:47.684Z,13.61
2024-04-30T02:39:15.591Z,13.58
2024-04-30T02:41:43.484Z,13.57
2024-04-30T02:44:11.380Z,13.56
2024-04-30T02:46:39.351Z,13.56
2024-04-30T02:49:07.429Z,13.54
2024-04-30T02:51:35.312Z,13.52
2024-04-30T02:54:03.193Z,13.51
2024-04-30T02:56:31.121Z,13.50
2024-04-30T02:58:58.958Z,13.48
2024-04-30T03:01:26.931Z,13.47
2024-04-30T03:03:54.866Z,13.47
2024-04-30T03:06:22.742Z,13.48
2024-04-30T03:08:50.596Z,13.47
2024-04-30T03:11:18.633Z,13.48
2024-04-30T03:13:46.789Z,13.47
2024-04-30T03:16:14.733Z,13.48
2024-04-30T03:18:42.742Z,13.47
2024-04-30T03:21:11.729Z,13.48
2024-04-30T03:23:39.993Z,13.47
2024-04-30T03:26:08.013Z,13.48
2024-04-30T03:28:36.018Z,13.46
2024-04-30T03:31:06.409Z,13.44
2024-04-30T03:33:37.302Z,13.44
2024-04-30T03:36:05.918Z,13.43
2024-04-30T03:38:39.309Z,13.43
2024-04-30T03:41:14.993Z,13.42
2024-04-30T03:43:44.342Z,13.43
2024-04-30T03:46:16.115Z,13.43
2024-04-30T03:48:43.970Z,13.45
2024-04-30T03:51:11.879Z,13.46
2024-04-30T03:53:40.459Z,13.45
2024-04-30T03:56:08.361Z,13.46
2024-04-30T03:58:36.394Z,13.48
2024-04-30T04:01:05.082Z,13.51
2024-04-30T04:03:33.097Z,13.52
2024-04-30T04:06:01.006Z,13.53
2024-04-30T04:08:28.895Z,13.54
2024-04-30T04:11:15.357Z,13.52
2024-04-30T04:14:01.890Z,13.53
2024-04-30T04:16:29.812Z,13.56
2024-04-30T04:18:57.674Z,13.58
2024-04-30T04:21:25.509Z,13.60
2024-04-30T04:23:53.343Z,13.62
2024-04-30T04:26:21.251Z,13.65
2024-04-30T04:28:49.209Z,13.69
2024-04-30T04:31:17.210Z,13.73
2024-04-30T04:33:45.081Z,13.76
2024-04-30T04:36:14.131Z,13.80
2024-04-30T04:38:43.025Z,13.83
2024-04-30T04:41:10.956Z,13.86
2024-04-30T04:43:39.027Z,13.91
2024-04-30T04:46:06.969Z,13.96
2024-04-30T04:48:34.901Z,14.02
2024-04-30T04:51:03.024Z,14.06
2024-04-30T04:53:30.867Z,14.10
2024-04-30T04:55:58.753Z,14.16
2024-04-30T04:58:26.652Z,14.22
2024-04-30T05:00:56.377Z,14.26
2024-04-30T05:03:24.336Z,14.33
2024-04-30T05:05:52.276Z,14.40
2024-04-30T05:08:20.201Z,14.48
2024-04-30T05:10:48.123Z,14.55
2024-04-30T05:13:16.149Z,14.59
2024-04-30T05:15:44.095Z,14.66
2024-04-30T05:18:11.986Z,14.70
2024-04-30T05:20:39.934Z,14.77
2024-04-30T05:23:08.356Z,14.85
2024-04-30T05:25:37.000Z,14.91
2024-04-30T05:28:06.321Z,15.00
2024-04-30T05:30:34.329Z,15.06
2024-04-30T05:33:03.746Z,15.13
2024-04-30T05:35:31.798Z,15.19
2024-04-30T05:37:59.790Z,15.27
2024-04-30T05:40:27.801Z,15.36
2024-04-30T05:42:55.779Z,15.44
2024-04-30T05:45:23.668Z,15.51
2024-04-30T05:47:51.534Z,15.60
2024-04-30T05:50:21.988Z,15.69
2024-04-30T05:52:49.800Z,15.80
2024-04-30T05:55:17.811Z,15.90
2024-04-30T05:57:45.707Z,16.02
2024-04-30T06:00:13.871Z,16.13
2024-04-30T06:02:41.781Z,16.24
2024-04-30T06:05:09.867Z,16.35
2024-04-30T06:07:38.018Z,16.44
2024-04-30T06:10:06.681Z,16.52
2024-04-30T06:12:34.576Z,16.59
2024-04-30T06:15:03.593Z,16.67
2024-04-30T06:17:31.550Z,16.74
2024-04-30T06:19:59.493Z,16.80
2024-04-30T06:22:27.434Z,16.90
2024-04-30T06:24:55.353Z,16.97
2024-04-30T06:27:23.302Z,17.03
2024-04-30T06:29:51.177Z,17.03
2024-04-30T06:32:19.054Z,17.07
2024-04-30T06:34:47.174Z,17.14
2024-04-30T06:37:15.571Z,17.24
2024-04-30T06:39:44.283Z,17.38
2024-04-30T06:42:12.529Z,17.61
2024-04-30T06:44:40.343Z,17.76
2024-04-30T06:47:08.278Z,17.97
2024-04-30T06:49:36.196Z,18.12
2024-04-30T06:52:04.954Z,18.19
2024-04-30T06:54:32.956Z,18.19
2024-04-30T06:57:00.803Z,18.32
2024-04-30T06:59:28.663Z,18.42
2024-04-30T07:01:56.546Z,18.52
2024-04-30T07:04:24.706Z,18.58
2024-04-30T07:06:53.036Z,18.66
2024-04-30T07:09:20.885Z,18.79
2024-04-30T07:11:48.908Z,18.97
2024-04-30T07:14:16.757Z,19.18
2024-04-30T07:16:52.077Z,19.37
2024-04-30T07:19:24.892Z,19.53
2024-04-30T07:21:52.853Z,19.61
2024-04-30T07:24:20.810Z,19.69
2024-04-30T07:26:48.695Z,19.79
2024-04-30T07:29:16.504Z,19.78
2024-04-30T07:31:44.491Z,19.86
2024-04-30T07:34:12.612Z,19.88
2024-04-30T07:36:40.609Z,19.92
2024-04-30T07:39:08.508Z,19.96
2024-04-30T07:41:38.929Z,20.00
2024-04-30T07:44:06.732Z,20.07
2024-04-30T07:46:34.662Z,20.10
2024-04-30T07:49:03.024Z,20.21
2024-04-30T07:51:30.828Z,20.31
2024-04-30T07:53:58.626Z,20.43
2024-04-30T07:56:26.530Z,20.62
2024-04-30T07:58:54.364Z,20.71
2024-04-30T08:01:22.549Z,20.77
2024-04-30T08:03:50.488Z,20.78
2024-04-30T08:06:20.799Z,20.73
2024-04-30T08:08:49.310Z,20.82
2024-04-30T08:11:17.224Z,20.97
2024-04-30T08:13:45.609Z,21.07
2024-04-30T08:16:14.617Z,21.12
2024-04-30T08:18:43.829Z,21.12
2024-04-30T08:21:11.924Z,21.11
2024-04-30T08:23:39.945Z,21.07
2024-04-30T08:26:08.130Z,21.15
2024-04-30T08:28:36.220Z,21.28
2024-04-30T08:31:04.935Z,21.40
2024-04-30T08:33:33.354Z,21.42
2024-04-30T08:36:01.330Z,21.24
2024-04-30T08:38:29.264Z,21.26
2024-04-30T08:40:58.447Z,21.41
2024-04-30T08:43:29.448Z,21.44
2024-04-30T08:45:58.747Z,21.49
2024-04-30T08:48:27.798Z,21.41
2024-04-30T08:50:57.149Z,21.37
2024-04-30T08:53:25.134Z,21.30
2024-04-30T08:55:54.598Z,21.32
2024-04-30T08:58:22.810Z,21.32
2024-04-30T09:00:53.641Z,21.31
2024-04-30T09:03:26.472Z,21.49
2024-04-30T09:05:55.730Z,21.71
2024-04-30T09:08:25.203Z,21.64
2024-04-30T09:10:53.207Z,21.49
2024-04-30T09:13:34.039Z,21.33
2024-04-30T09:16:02.333Z,21.29
2024-04-30T09:18:30.309Z,21.26
2024-04-30T09:21:08.000Z,21.28
2024-04-30T09:23:44.482Z,21.40
2024-04-30T09:26:12.604Z,21.49
2024-04-30T09:28:41.673Z,21.55
2024-04-30T09:31:11.836Z,21.68
2024-04-30T09:33:40.206Z,21.94
2024-04-30T09:36:10.580Z,22.28
2024-04-30T09:38:40.287Z,22.39
2024-04-30T09:41:12.492Z,22.48
2024-04-30T09:43:41.339Z,22.72
2024-04-30T09:46:09.528Z,22.90
2024-04-30T09:48:39.874Z,22.96
2024-04-30T09:51:13.734Z,23.10
2024-04-30T09:53:42.392Z,23.17
2024-04-30T09:56:11.525Z,23.35
2024-04-30T09:58:40.235Z,23.45
2024-04-30T10:01:12.216Z,23.58
2024-04-30T10:03:42.821Z,23.43
2024-04-30T10:06:14.009Z,23.45
2024-04-30T10:08:45.321Z,23.47
2024-04-30T10:11:13.641Z,23.22
2024-04-30T10:13:51.015Z,23.09
2024-04-30T10:16:20.548Z,22.83
2024-04-30T10:18:50.366Z,22.88
2024-04-30T10:21:18.263Z,22.92
2024-04-30T10:23:46.950Z,22.97
2024-04-30T10:26:15.836Z,22.98
2024-04-30T10:28:44.055Z,22.96
2024-04-30T10:31:15.283Z,23.00
2024-04-30T10:33:43.455Z,23.03
2024-04-30T10:36:15.624Z,23.21
2024-04-30T10:38:43.551Z,23.24
2024-04-30T10:41:11.613Z,23.15
2024-04-30T10:43:40.368Z,23.20
2024-04-30T10:46:14.366Z,23.07
2024-04-30T10:48:56.090Z,23.14
2024-04-30T10:51:25.624Z,23.15
2024-04-30T10:53:58.388Z,23.17
2024-04-30T10:56:26.395Z,23.22
2024-04-30T10:58:55.218Z,23.27
2024-04-30T11:01:24.799Z,23.25
2024-04-30T11:04:04.984Z,23.29
2024-04-30T11:06:45.864Z,23.25
2024-04-30T11:09:15.802Z,23.37
2024-04-30T11:11:48.725Z,23.38
2024-04-30T11:14:17.869Z,23.42
2024-04-30T11:16:50.296Z,23.52
2024-04-30T11:19:21.494Z,23.52
2024-04-30T11:21:51.608Z,23.57
2024-04-30T11:24:19.611Z,23.73
2024-04-30T11:26:50.552Z,23.86
2024-04-30T11:31:49.764Z,23.95
2024-04-30T11:34:17.879Z,23.92
2024-04-30T11:36:47.246Z,23.95
2024-04-30T11:39:15.367Z,23.96
2024-04-30T11:41:49.094Z,23.91
2024-04-30T11:44:25.024Z,23.99
2024-04-30T11:46:52.872Z,23.90
2024-04-30T11:49:20.907Z,23.82
2024-04-30T11:51:48.786Z,23.75
2024-04-30T11:54:16.637Z,23.77
2024-04-30T11:56:47.654Z,23.77
2024-04-30T11:59:15.468Z,23.70
2024-04-30T12:01:43.323Z,23.75
2024-04-30T12:04:11.478Z,23.83
2024-04-30T12:06:40.037Z,23.83
2024-04-30T12:09:07.857Z,23.97
2024-04-30T12:11:39.300Z,24.10
2024-04-30T12:14:07.289Z,24.18
2024-04-30T12:16:35.211Z,24.11
2024-04-30T12:19:05.008Z,24.07
2024-04-30T12:21:32.895Z,24.02
2024-04-30T12:24:00.711Z,24.16
2024-04-30T12:26:28.547Z,24.16
2024-04-30T12:28:56.360Z,24.12
2024-04-30T12:31:24.242Z,24.11
2024-04-30T12:33:52.077Z,24.12
2024-04-30T12:36:20.062Z,24.12
2024-04-30T12:38:47.892Z,24.12
2024-04-30T12:41:15.740Z,23.87
2024-04-30T12:43:43.645Z,23.78
2024-04-30T12:46:11.557Z,23.79
2024-04-30T12:48:39.515Z,23.61
2024-04-30T12:51:07.445Z,23.56
2024-04-30T12:53:35.258Z,23.56
2024-04-30T12:56:03.168Z,23.73
2024-04-30T12:58:31.010Z,23.68
2024-04-30T13:00:58.980Z,23.57
2024-04-30T13:03:26.998Z,23.52
2024-04-30T13:05:54.957Z,23.59
2024-04-30T13:08:22.932Z,23.58
2024-04-30T13:10:51.005Z,23.77
2024-04-30T13:13:19.057Z,23.81
2024-04-30T13:15:46.904Z,23.84
2024-04-30T13:18:14.769Z,23.91
2024-04-30T13:20:42.616Z,24.05
2024-04-30T13:23:10.475Z,24.22
2024-04-30T13:25:38.433Z,24.29
2024-04-30T13:28:06.738Z,24.40
2024-04-30T13:30:34.749Z,24.57
2024-04-30T13:33:06.785Z,24.71
2024-04-30T13:35:34.844Z,24.84
2024-04-30T13:38:02.758Z,24.93
2024-04-30T13:40:31.921Z,25.01
2024-04-30T13:43:00.132Z,25.10
2024-04-30T13:45:28.210Z,25.42
2024-04-30T13:47:56.167Z,25.59
2024-04-30T13:50:24.455Z,25.76
2024-04-30T13:52:52.339Z,25.96
2024-04-30T13:55:20.261Z,26.08
2024-04-30T13:57:48.197Z,26.16
2024-04-30T14:00:16.310Z,26.28
2024-04-30T14:02:47.513Z,26.20
2024-04-30T14:05:15.524Z,26.23
2024-04-30T14:07:46.436Z,26.19
2024-04-30T14:10:14.776Z,26.05
2024-04-30T14:12:48.986Z,26.10
2024-04-30T14:15:17.281Z,26.35
2024-04-30T14:17:45.307Z,26.21
2024-04-30T14:20:13.263Z,26.21
2024-04-30T14:22:41.859Z,26.29
2024-04-30T14:25:10.212Z,26.30
2024-04-30T14:27:38.141Z,26.43
2024-04-30T14:30:06.872Z,26.44
2024-04-30T14:32:34.855Z,26.65
2024-04-30T14:35:02.941Z,26.71
2024-04-30T14:37:31.140Z,26.86
2024-04-30T14:39:59.029Z,26.78
2024-04-30T14:42:26.929Z,26.69
2024-04-30T14:44:55.367Z,26.61
2024-04-30T14:47:23.528Z,26.48
2024-04-30T14:49:51.692Z,26.62
2024-04-30T14:52:19.714Z,26.96
2024-04-30T14:54:48.043Z,27.00
2024-04-30T14:57:15.932Z,26.95
2024-04-30T14:59:43.815Z,26.88
2024-04-30T15:02:11.756Z,26.67
2024-04-30T15:04:39.687Z,26.47
2024-04-30T15:07:07.561Z,26.06
2024-04-30T15:09:35.952Z,25.80
2024-04-30T15:12:04.127Z,25.87
2024-04-30T15:14:32.081Z,25.65
2024-04-30T15:17:00.055Z,25.59
2024-04-30T15:19:28.124Z,25.44
2024-04-30T15:21:57.187Z,25.09
2024-04-30T15:24:25.057Z,24.79
2024-04-30T15:26:52.940Z,24.60
2024-04-30T15:29:20.918Z,24.33
2024-04-30T15:31:49.007Z,24.29
2024-04-30T15:34:17.125Z,24.20
2024-04-30T15:36:45.045Z,24.02
2024-04-30T15:39:19.523Z,23.82
2024-04-30T15:41:47.425Z,23.52
2024-04-30T15:44:15.265Z,23.46
2024-04-30T15:46:43.419Z,23.36
2024-04-30T15:49:14.935Z,23.13
2024-04-30T15:51:42.896Z,22.95
2024-04-30T15:54:14.324Z,22.90
2024-04-30T15:56:50.404Z,22.66
2024-04-30T15:59:22.507Z,22.59
2024-04-30T16:01:51.089Z,22.51
2024-04-30T16:04:19.365Z,22.42
2024-04-30T16:06:47.436Z,22.32
2024-04-30T16:09:15.296Z,22.27
2024-04-30T16:11:43.518Z,22.21
2024-04-30T16:14:11.359Z,22.14
2024-04-30T16:16:40.344Z,22.00
2024-04-30T16:19:12.867Z,21.89
2024-04-30T16:21:40.857Z,21.80
2024-04-30T16:24:13.093Z,21.77
2024-04-30T16:26:41.760Z,21.68
2024-04-30T16:29:09.998Z,21.60
2024-04-30T16:31:38.405Z,21.48
2024-04-30T16:34:06.589Z,21.39
2024-04-30T16:36:34.579Z,21.29
2024-04-30T16:39:02.440Z,21.21
2024-04-30T16:41:30.374Z,21.17
2024-04-30T16:43:58.223Z,21.10
2024-04-30T16:46:26.117Z,21.01
2024-04-30T16:48:57.354Z,20.89
2024-04-30T16:51:25.511Z,20.80
2024-04-30T16:53:53.687Z,20.74
2024-04-30T16:56:21.576Z,20.67
2024-04-30T16:58:51.039Z,20.59
2024-04-30T17:01:19.021Z,20.51
2024-04-30T17:03:49.541Z,20.46
2024-04-30T17:06:19.382Z,20.39
2024-04-30T17:08:47.421Z,20.31
2024-04-30T17:11:15.460Z,20.27
2024-04-30T17:13:44.007Z,20.22
2024-04-30T17:16:23.436Z,20.07
2024-04-30T17:18:51.993Z,19.90
2024-04-30T17:21:22.592Z,19.76
2024-04-30T17:23:50.825Z,19.70
2024-04-30T17:26:26.405Z,19.72
2024-04-30T17:28:55.660Z,19.67
2024-04-30T17:31:24.978Z,19.53
2024-04-30T17:33:56.785Z,19.39
2024-04-30T17:36:25.376Z,19.34
2024-04-30T17:38:53.707Z,19.28
2024-04-30T17:41:27.293Z,19.23
2024-04-30T17:43:55.557Z,19.12
2024-04-30T17:46:26.783Z,19.01
2024-04-30T17:48:56.383Z,18.96
2024-04-30T17:51:28.332Z,18.86
2024-04-30T17:53:56.631Z,18.81
2024-04-30T17:56:24.507Z,18.74
2024-04-30T17:58:52.447Z,18.65
2024-04-30T18:01:20.436Z,18.60
2024-04-30T18:03:55.762Z,18.56
2024-04-30T18:06:24.829Z,18.51
2024-04-30T18:08:57.653Z,18.44
2024-04-30T18:11:26.755Z,18.32
2024-04-30T18:13:56.426Z,18.26
2024-04-30T18:16:26.133Z,18.29
2024-04-30T18:18:55.571Z,18.30
2024-04-30T18:21:27.658Z,18.21
2024-04-30T18:23:56.354Z,18.11
2024-04-30T18:26:24.213Z,18.10
2024-04-30T18:28:56.026Z,18.10
2024-04-30T18:31:25.733Z,18.07
2024-04-30T18:33:55.715Z,18.03
2024-04-30T18:36:25.984Z,17.98
2024-04-30T18:38:55.016Z,17.91
2024-04-30T18:41:29.806Z,17.86
2024-04-30T18:43:59.787Z,17.81
2024-04-30T18:46:28.199Z,17.78
2024-04-30T18:48:56.655Z,17.77
2024-04-30T18:51:25.580Z,17.74
2024-04-30T18:53:54.138Z,17.68
2024-04-30T18:56:22.289Z,17.61
2024-04-30T18:58:50.209Z,17.55
2024-04-30T19:01:18.517Z,17.51
2024-04-30T19:03:49.679Z,17.51
2024-04-30T19:06:21.305Z,17.47
2024-04-30T19:08:49.495Z,17.43
2024-04-30T19:11:17.420Z,17.35
2024-04-30T19:13:45.639Z,17.26
2024-04-30T19:16:13.674Z,17.21
2024-04-30T19:18:41.666Z,17.16
2024-04-30T19:21:09.768Z,17.14
2024-04-30T19:23:37.734Z,17.10
2024-04-30T19:26:13.276Z,17.07
2024-04-30T19:28:41.184Z,17.05
2024-04-30T19:31:20.844Z,17.02
2024-04-30T19:33:49.615Z,16.92
2024-04-30T19:36:19.489Z,16.91
2024-04-30T19:38:47.883Z,16.91
2024-04-30T19:41:17.016Z,16.85
2024-04-30T19:43:44.875Z,16.78
2024-04-30T19:46:21.892Z,16.77
2024-04-30T19:48:52.558Z,16.78
2024-04-30T19:51:22.210Z,16.76
2024-04-30T19:53:53.083Z,16.72
2024-04-30T19:56:22.236Z,16.66
2024-04-30T19:58:57.106Z,16.62
2024-04-30T20:01:28.858Z,16.60
2024-04-30T20:03:58.502Z,16.55
2024-04-30T20:06:27.278Z,16.57
2024-04-30T20:08:55.287Z,16.53
2024-04-30T20:11:25.286Z,16.50
2024-04-30T20:13:54.622Z,16.48
2024-04-30T20:16:26.903Z,16.46
2024-04-30T20:18:55.312Z,16.39
2024-04-30T20:21:25.500Z,16.35
2024-04-30T20:23:54.415Z,16.34
2024-04-30T20:26:22.366Z,16.31
2024-04-30T20:28:50.233Z,16.28
2024-04-30T20:31:18.144Z,16.23
2024-04-30T20:33:46.487Z,16.22
2024-04-30T20:36:18.878Z,16.20
2024-04-30T20:38:47.114Z,16.17
2024-04-30T20:41:15.176Z,16.14
2024-04-30T20:43:43.085Z,16.11
2024-04-30T20:46:10.930Z,16.07
2024-04-30T20:48:39.018Z,16.02
2024-04-30T20:51:07.010Z,16.01
2024-04-30T20:53:34.844Z,15.96
2024-04-30T20:56:05.764Z,15.89
2024-04-30T20:58:33.694Z,15.82
2024-04-30T21:01:01.679Z,15.77
2024-04-30T21:03:29.766Z,15.72
2024-04-30T21:05:57.780Z,15.69
2024-04-30T21:08:25.644Z,15.67
2024-04-30T21:10:53.767Z,15.60
2024-04-30T21:13:21.908Z,15.58
2024-04-30T21:15:49.821Z,15.54
2024-04-30T21:18:17.788Z,15.50
2024-04-30T21:20:45.710Z,15.48
2024-04-30T21:23:13.613Z,15.44
2024-04-30T21:25:41.531Z,15.44
2024-04-30T21:28:09.368Z,15.46
2024-04-30T21:30:37.259Z,15.47
2024-04-30T21:33:05.370Z,15.47
2024-04-30T21:35:33.835Z,15.47
2024-04-30T21:38:01.741Z,15.45
2024-04-30T21:40:29.651Z,15.46
2024-04-30T21:42:57.598Z,15.48
2024-04-30T21:45:25.650Z,15.46
2024-04-30T21:47:53.583Z,15.43
2024-04-30T21:50:21.678Z,15.40
2024-04-30T21:52:49.535Z,15.38
2024-04-30T21:55:17.436Z,15.35
2024-04-30T21:57:45.347Z,15.31
2024-04-30T22:00:14.618Z,15.29
2024-04-30T22:02:42.567Z,15.24
2024-04-30T22:05:10.586Z,15.22
2024-04-30T22:07:38.438Z,15.22
2024-04-30T22:10:06.739Z,15.20
2024-04-30T22:12:34.831Z,15.16
2024-04-30T22:15:02.752Z,15.11
2024-04-30T22:17:30.722Z,15.06
2024-04-30T22:19:58.826Z,15.00
2024-04-30T22:22:26.721Z,14.95
2024-04-30T22:24:54.829Z,14.92
2024-04-30T22:27:22.954Z,14.89
2024-04-30T22:29:57.577Z,14.84
2024-04-30T22:32:25.995Z,14.78
2024-04-30T22:34:53.952Z,14.74
2024-04-30T22:37:21.764Z,14.70
2024-04-30T22:39:49.663Z,14.67
2024-04-30T22:42:17.579Z,14.63
2024-04-30T22:44:45.406Z,14.60
2024-04-30T22:47:14.288Z,14.56
2024-04-30T22:49:42.999Z,14.56
2024-04-30T22:52:11.223Z,14.56
2024-04-30T22:54:39.132Z,14.53
2024-04-30T22:57:07.235Z,14.52
2024-04-30T22:59:35.186Z,14.49
2024-04-30T23:02:03.059Z,14.47
2024-04-30T23:04:30.964Z,14.45
2024-04-30T23:06:58.947Z,14.41
2024-04-30T23:09:29.262Z,14.37
2024-04-30T23:11:58.669Z,14.31
2024-04-30T23:14:26.636Z,14.29
2024-04-30T23:16:54.681Z,14.27
2024-04-30T23:19:22.634Z,14.26
2024-04-30T23:21:50.704Z,14.24
2024-04-30T23:24:18.811Z,14.23
2024-04-30T23:26:46.619Z,14.21
2024-04-30T23:29:14.488Z,14.20
2024-04-30T23:31:42.413Z,14.17
2024-04-30T23:34:10.286Z,14.14
2024-04-30T23:36:38.206Z,14.13
2024-04-30T23:39:06.062Z,14.10
2024-04-30T23:41:33.929Z,14.07
2024-04-30T23:44:01.768Z,13.99
2024-04-30T23:46:29.682Z,13.94
2024-04-30T23:48:57.703Z,13.91
2024-04-30T23:51:25.673Z,13.87
2024-04-30T23:53:53.632Z,13.83
2024-04-30T23:56:21.488Z,13.82
2024-04-30T23:58:49.630Z,13.72
